sensor_id;sensor_type;location;lat;lon;timestamp;temperature;humidity
15554;DHT22;7878;44.632;10.942;2023-12-07T00:01:35;5.20;99.90
15554;DHT22;7878;44.632;10.942;2023-12-07T00:04:03;5.20;99.90
15554;DHT22;7878;44.632;10.942;2023-12-07T00:06:28;5.20;99.90
15554;DHT22;7878;44.632;10.942;2023-12-07T00:08:54;5.30;99.90
15554;DHT22;7878;44.632;10.942;2023-12-07T00:11:22;5.30;99.90
15554;DHT22;7878;44.632;10.942;2023-12-07T00:13:48;5.30;99.90
15554;DHT22;7878;44.632;10.942;2023-12-07T00:16:14;5.30;99.90
15554;DHT22;7878;44.632;10.942;2023-12-07T00:18:40;5.30;99.90
15554;DHT22;7878;44.632;10.942;2023-12-07T00:21:08;5.30;99.90
15554;DHT22;7878;44.632;10.942;2023-12-07T00:23:34;5.30;99.90
15554;DHT22;7878;44.632;10.942;2023-12-07T00:26:00;5.30;99.90
15554;DHT22;7878;44.632;10.942;2023-12-07T00:28:25;5.20;99.90
15554;DHT22;7878;44.632;10.942;2023-12-07T00:30:52;5.20;99.90
15554;DHT22;7878;44.632;10.942;2023-12-07T00:33:17;5.20;99.90
15554;DHT22;7878;44.632;10.942;2023-12-07T00:35:43;5.20;99.90
15554;DHT22;7878;44.632;10.942;2023-12-07T00:38:09;5.20;99.90
15554;DHT22;7878;44.632;10.942;2023-12-07T00:40:36;5.20;99.90
15554;DHT22;7878;44.632;10.942;2023-12-07T00:43:04;5.20;99.90
15554;DHT22;7878;44.632;10.942;2023-12-07T00:45:29;5.30;99.90
15554;DHT22;7878;44.632;10.942;2023-12-07T00:47:56;5.30;99.90
15554;DHT22;7878;44.632;10.942;2023-12-07T00:50:22;5.30;99.90
15554;DHT22;7878;44.632;10.942;2023-12-07T00:52:47;5.30;99.90
15554;DHT22;7878;44.632;10.942;2023-12-07T00:55:13;5.30;99.90
15554;DHT22;7878;44.632;10.942;2023-12-07T00:57:39;5.30;99.90
15554;DHT22;7878;44.632;10.942;2023-12-07T01:00:07;5.20;99.90
15554;DHT22;7878;44.632;10.942;2023-12-07T01:02:33;5.20;99.90
15554;DHT22;7878;44.632;10.942;2023-12-07T01:04:59;5.20;99.90
15554;DHT22;7878;44.632;10.942;2023-12-07T01:07:25;5.20;99.90
15554;DHT22;7878;44.632;10.942;2023-12-07T01:09:51;5.20;99.90
15554;DHT22;7878;44.632;10.942;2023-12-07T01:12:17;5.20;99.90
15554;DHT22;7878;44.632;10.942;2023-12-07T01:14:42;5.20;99.90
15554;DHT22;7878;44.632;10.942;2023-12-07T01:17:08;5.20;99.90
15554;DHT22;7878;44.632;10.942;2023-12-07T01:19:34;5.20;99.90
15554;DHT22;7878;44.632;10.942;2023-12-07T01:22:00;5.20;99.90
15554;DHT22;7878;44.632;10.942;2023-12-07T01:24:26;5.20;99.90
15554;DHT22;7878;44.632;10.942;2023-12-07T01:26:51;5.20;99.90
15554;DHT22;7878;44.632;10.942;2023-12-07T01:29:17;5.10;99.90
15554;DHT22;7878;44.632;10.942;2023-12-07T01:31:43;5.00;99.90
15554;DHT22;7878;44.632;10.942;2023-12-07T01:34:09;5.00;99.90
15554;DHT22;7878;44.632;10.942;2023-12-07T01:36:35;4.90;99.90
15554;DHT22;7878;44.632;10.942;2023-12-07T01:39:00;4.90;99.90
15554;DHT22;7878;44.632;10.942;2023-12-07T01:41:26;4.90;99.90
15554;DHT22;7878;44.632;10.942;2023-12-07T01:43:52;4.90;99.90
15554;DHT22;7878;44.632;10.942;2023-12-07T01:46:18;4.90;99.90
15554;DHT22;7878;44.632;10.942;2023-12-07T01:48:44;4.90;99.90
15554;DHT22;7878;44.632;10.942;2023-12-07T01:51:14;4.90;99.90
15554;DHT22;7878;44.632;10.942;2023-12-07T01:53:40;4.90;99.90
15554;DHT22;7878;44.632;10.942;2023-12-07T01:56:06;4.90;99.90
15554;DHT22;7878;44.632;10.942;2023-12-07T01:58:33;5.00;99.90
15554;DHT22;7878;44.632;10.942;2023-12-07T02:01:01;5.00;99.90
15554;DHT22;7878;44.632;10.942;2023-12-07T02:03:27;5.00;99.90
15554;DHT22;7878;44.632;10.942;2023-12-07T02:05:55;5.00;99.90
15554;DHT22;7878;44.632;10.942;2023-12-07T02:08:22;4.90;99.90
15554;DHT22;7878;44.632;10.942;2023-12-07T02:10:48;4.90;99.90
15554;DHT22;7878;44.632;10.942;2023-12-07T02:13:14;4.90;99.90
15554;DHT22;7878;44.632;10.942;2023-12-07T02:15:40;4.80;99.90
15554;DHT22;7878;44.632;10.942;2023-12-07T02:18:22;4.80;99.90
15554;DHT22;7878;44.632;10.942;2023-12-07T02:20:58;4.80;99.90
15554;DHT22;7878;44.632;10.942;2023-12-07T02:23:27;4.80;99.90
15554;DHT22;7878;44.632;10.942;2023-12-07T02:25:54;4.80;99.90
15554;DHT22;7878;44.632;10.942;2023-12-07T02:28:21;4.80;99.90
15554;DHT22;7878;44.632;10.942;2023-12-07T02:30:47;4.80;99.90
15554;DHT22;7878;44.632;10.942;2023-12-07T02:33:13;4.80;99.90
15554;DHT22;7878;44.632;10.942;2023-12-07T02:35:39;4.80;99.90
15554;DHT22;7878;44.632;10.942;2023-12-07T02:38:07;4.70;99.90
15554;DHT22;7878;44.632;10.942;2023-12-07T02:40:33;4.80;99.90
15554;DHT22;7878;44.632;10.942;2023-12-07T02:43:00;4.80;99.90
15554;DHT22;7878;44.632;10.942;2023-12-07T02:45:27;4.80;99.90
15554;DHT22;7878;44.632;10.942;2023-12-07T02:47:53;4.80;99.90
15554;DHT22;7878;44.632;10.942;2023-12-07T02:50:19;4.80;99.90
15554;DHT22;7878;44.632;10.942;2023-12-07T02:52:45;4.80;99.90
15554;DHT22;7878;44.632;10.942;2023-12-07T02:55:11;4.80;99.90
15554;DHT22;7878;44.632;10.942;2023-12-07T02:57:37;4.80;99.90
15554;DHT22;7878;44.632;10.942;2023-12-07T03:00:04;4.80;99.90
15554;DHT22;7878;44.632;10.942;2023-12-07T03:02:36;4.80;99.90
15554;DHT22;7878;44.632;10.942;2023-12-07T03:05:02;4.80;99.90
15554;DHT22;7878;44.632;10.942;2023-12-07T03:07:29;4.70;99.90
15554;DHT22;7878;44.632;10.942;2023-12-07T03:09:54;4.70;99.90
15554;DHT22;7878;44.632;10.942;2023-12-07T03:12:20;4.60;99.90
15554;DHT22;7878;44.632;10.942;2023-12-07T03:14:46;4.60;99.90
15554;DHT22;7878;44.632;10.942;2023-12-07T03:17:12;4.60;99.90
15554;DHT22;7878;44.632;10.942;2023-12-07T03:19:41;4.70;99.90
15554;DHT22;7878;44.632;10.942;2023-12-07T03:22:07;4.60;99.90
15554;DHT22;7878;44.632;10.942;2023-12-07T03:24:37;4.70;99.90
15554;DHT22;7878;44.632;10.942;2023-12-07T03:27:03;4.60;99.90
15554;DHT22;7878;44.632;10.942;2023-12-07T03:29:29;4.60;99.90
15554;DHT22;7878;44.632;10.942;2023-12-07T03:31:55;4.60;99.90
15554;DHT22;7878;44.632;10.942;2023-12-07T03:34:20;4.60;99.90
15554;DHT22;7878;44.632;10.942;2023-12-07T03:36:47;4.70;99.90
15554;DHT22;7878;44.632;10.942;2023-12-07T03:39:16;4.70;99.90
15554;DHT22;7878;44.632;10.942;2023-12-07T03:41:44;4.60;99.90
15554;DHT22;7878;44.632;10.942;2023-12-07T03:44:10;4.60;99.90
15554;DHT22;7878;44.632;10.942;2023-12-07T03:46:36;4.60;99.90
15554;DHT22;7878;44.632;10.942;2023-12-07T03:49:02;4.60;99.90
15554;DHT22;7878;44.632;10.942;2023-12-07T03:51:28;4.60;99.90
15554;DHT22;7878;44.632;10.942;2023-12-07T03:53:54;4.60;99.90
15554;DHT22;7878;44.632;10.942;2023-12-07T03:56:28;4.60;99.90
15554;DHT22;7878;44.632;10.942;2023-12-07T03:58:54;4.60;99.90
15554;DHT22;7878;44.632;10.942;2023-12-07T04:01:24;4.60;99.90
15554;DHT22;7878;44.632;10.942;2023-12-07T04:03:51;4.60;99.90
15554;DHT22;7878;44.632;10.942;2023-12-07T04:06:17;4.60;99.90
15554;DHT22;7878;44.632;10.942;2023-12-07T04:08:44;4.60;99.90
15554;DHT22;7878;44.632;10.942;2023-12-07T04:11:10;4.60;99.90
15554;DHT22;7878;44.632;10.942;2023-12-07T04:13:35;4.50;99.90
15554;DHT22;7878;44.632;10.942;2023-12-07T04:16:01;4.50;99.90
15554;DHT22;7878;44.632;10.942;2023-12-07T04:18:29;4.50;99.90
15554;DHT22;7878;44.632;10.942;2023-12-07T04:20:55;4.50;99.90
15554;DHT22;7878;44.632;10.942;2023-12-07T04:23:20;4.50;99.90
15554;DHT22;7878;44.632;10.942;2023-12-07T04:25:46;4.50;99.90
15554;DHT22;7878;44.632;10.942;2023-12-07T04:28:12;4.40;99.90
15554;DHT22;7878;44.632;10.942;2023-12-07T04:30:37;4.40;99.90
15554;DHT22;7878;44.632;10.942;2023-12-07T04:33:03;4.40;99.90
15554;DHT22;7878;44.632;10.942;2023-12-07T04:35:30;4.40;99.90
15554;DHT22;7878;44.632;10.942;2023-12-07T04:37:56;4.40;99.90
15554;DHT22;7878;44.632;10.942;2023-12-07T04:40:21;4.40;99.90
15554;DHT22;7878;44.632;10.942;2023-12-07T04:42:47;4.30;99.90
15554;DHT22;7878;44.632;10.942;2023-12-07T04:45:12;4.30;99.90
15554;DHT22;7878;44.632;10.942;2023-12-07T04:47:38;4.30;99.90
15554;DHT22;7878;44.632;10.942;2023-12-07T04:50:04;4.20;99.90
15554;DHT22;7878;44.632;10.942;2023-12-07T04:52:30;4.20;99.90
15554;DHT22;7878;44.632;10.942;2023-12-07T04:54:56;4.20;99.90
15554;DHT22;7878;44.632;10.942;2023-12-07T04:57:22;4.20;99.90
15554;DHT22;7878;44.632;10.942;2023-12-07T04:59:47;4.20;99.90
15554;DHT22;7878;44.632;10.942;2023-12-07T05:02:17;4.20;99.90
15554;DHT22;7878;44.632;10.942;2023-12-07T05:04:45;4.20;99.90
15554;DHT22;7878;44.632;10.942;2023-12-07T05:07:13;4.20;99.90
15554;DHT22;7878;44.632;10.942;2023-12-07T05:09:39;4.10;99.90
15554;DHT22;7878;44.632;10.942;2023-12-07T05:12:06;4.10;99.90
15554;DHT22;7878;44.632;10.942;2023-12-07T05:14:32;4.10;99.90
15554;DHT22;7878;44.632;10.942;2023-12-07T05:16:58;4.10;99.90
15554;DHT22;7878;44.632;10.942;2023-12-07T05:19:24;4.10;99.90
15554;DHT22;7878;44.632;10.942;2023-12-07T05:21:53;4.10;99.90
15554;DHT22;7878;44.632;10.942;2023-12-07T05:24:19;4.10;99.90
15554;DHT22;7878;44.632;10.942;2023-12-07T05:26:45;4.10;99.90
15554;DHT22;7878;44.632;10.942;2023-12-07T05:29:12;4.00;99.90
15554;DHT22;7878;44.632;10.942;2023-12-07T05:31:38;4.10;99.90
15554;DHT22;7878;44.632;10.942;2023-12-07T05:34:04;4.00;99.90
15554;DHT22;7878;44.632;10.942;2023-12-07T05:36:31;4.00;99.90
15554;DHT22;7878;44.632;10.942;2023-12-07T05:38:57;3.90;99.90
15554;DHT22;7878;44.632;10.942;2023-12-07T05:41:23;3.90;99.90
15554;DHT22;7878;44.632;10.942;2023-12-07T05:43:48;3.80;99.90
15554;DHT22;7878;44.632;10.942;2023-12-07T05:46:14;3.90;99.90
15554;DHT22;7878;44.632;10.942;2023-12-07T05:48:41;3.90;99.90
15554;DHT22;7878;44.632;10.942;2023-12-07T05:51:17;3.80;99.90
15554;DHT22;7878;44.632;10.942;2023-12-07T05:53:44;3.80;99.90
15554;DHT22;7878;44.632;10.942;2023-12-07T05:56:10;3.90;99.90
15554;DHT22;7878;44.632;10.942;2023-12-07T05:58:37;3.90;99.90
15554;DHT22;7878;44.632;10.942;2023-12-07T06:01:02;3.90;99.90
15554;DHT22;7878;44.632;10.942;2023-12-07T06:03:29;3.90;99.90
15554;DHT22;7878;44.632;10.942;2023-12-07T06:05:54;3.90;99.90
15554;DHT22;7878;44.632;10.942;2023-12-07T06:08:21;3.90;99.90
15554;DHT22;7878;44.632;10.942;2023-12-07T06:10:47;3.90;99.90
15554;DHT22;7878;44.632;10.942;2023-12-07T06:13:13;3.90;99.90
15554;DHT22;7878;44.632;10.942;2023-12-07T06:15:39;3.90;99.90
15554;DHT22;7878;44.632;10.942;2023-12-07T06:18:05;3.80;99.90
15554;DHT22;7878;44.632;10.942;2023-12-07T06:20:31;3.80;99.90
15554;DHT22;7878;44.632;10.942;2023-12-07T06:22:57;3.90;99.90
15554;DHT22;7878;44.632;10.942;2023-12-07T06:25:23;3.90;99.90
15554;DHT22;7878;44.632;10.942;2023-12-07T06:27:49;3.80;99.90
15554;DHT22;7878;44.632;10.942;2023-12-07T06:30:15;3.80;99.90
15554;DHT22;7878;44.632;10.942;2023-12-07T06:32:41;3.80;99.90
15554;DHT22;7878;44.632;10.942;2023-12-07T06:35:07;3.80;99.90
15554;DHT22;7878;44.632;10.942;2023-12-07T06:37:33;3.80;99.90
15554;DHT22;7878;44.632;10.942;2023-12-07T06:39:59;3.80;99.90
15554;DHT22;7878;44.632;10.942;2023-12-07T06:42:26;3.80;99.90
15554;DHT22;7878;44.632;10.942;2023-12-07T06:44:52;3.80;99.90
15554;DHT22;7878;44.632;10.942;2023-12-07T06:47:17;3.80;99.90
15554;DHT22;7878;44.632;10.942;2023-12-07T06:49:44;3.80;99.90
15554;DHT22;7878;44.632;10.942;2023-12-07T06:52:09;3.90;99.90
15554;DHT22;7878;44.632;10.942;2023-12-07T06:54:36;3.80;99.90
15554;DHT22;7878;44.632;10.942;2023-12-07T06:57:02;3.80;99.90
15554;DHT22;7878;44.632;10.942;2023-12-07T06:59:28;3.80;99.90
15554;DHT22;7878;44.632;10.942;2023-12-07T07:01:54;3.90;99.90
15554;DHT22;7878;44.632;10.942;2023-12-07T07:04:20;3.90;99.90
15554;DHT22;7878;44.632;10.942;2023-12-07T07:06:45;4.00;99.90
15554;DHT22;7878;44.632;10.942;2023-12-07T07:09:11;4.00;99.90
15554;DHT22;7878;44.632;10.942;2023-12-07T07:11:38;4.00;99.90
15554;DHT22;7878;44.632;10.942;2023-12-07T07:14:04;4.10;99.90
15554;DHT22;7878;44.632;10.942;2023-12-07T07:16:30;4.10;99.90
15554;DHT22;7878;44.632;10.942;2023-12-07T07:18:56;4.10;99.90
15554;DHT22;7878;44.632;10.942;2023-12-07T07:21:22;4.10;99.90
15554;DHT22;7878;44.632;10.942;2023-12-07T07:23:48;4.10;99.90
15554;DHT22;7878;44.632;10.942;2023-12-07T07:26:13;4.20;99.90
15554;DHT22;7878;44.632;10.942;2023-12-07T07:28:45;4.20;99.90
15554;DHT22;7878;44.632;10.942;2023-12-07T07:31:11;4.20;99.90
15554;DHT22;7878;44.632;10.942;2023-12-07T07:33:37;4.20;99.90
15554;DHT22;7878;44.632;10.942;2023-12-07T07:36:03;4.20;99.90
15554;DHT22;7878;44.632;10.942;2023-12-07T07:38:29;4.30;99.90
15554;DHT22;7878;44.632;10.942;2023-12-07T07:40:54;4.30;99.90
15554;DHT22;7878;44.632;10.942;2023-12-07T07:43:20;4.40;99.90
15554;DHT22;7878;44.632;10.942;2023-12-07T07:45:46;4.40;99.90
15554;DHT22;7878;44.632;10.942;2023-12-07T07:48:12;4.50;99.90
15554;DHT22;7878;44.632;10.942;2023-12-07T07:50:38;4.50;99.90
15554;DHT22;7878;44.632;10.942;2023-12-07T07:53:03;4.50;99.90
15554;DHT22;7878;44.632;10.942;2023-12-07T07:55:30;4.50;99.90
15554;DHT22;7878;44.632;10.942;2023-12-07T07:57:56;4.60;99.90
15554;DHT22;7878;44.632;10.942;2023-12-07T08:00:22;4.60;99.90
15554;DHT22;7878;44.632;10.942;2023-12-07T08:02:49;4.70;99.90
15554;DHT22;7878;44.632;10.942;2023-12-07T08:05:15;4.70;99.90
15554;DHT22;7878;44.632;10.942;2023-12-07T08:07:41;4.80;99.90
15554;DHT22;7878;44.632;10.942;2023-12-07T08:10:07;4.80;99.90
15554;DHT22;7878;44.632;10.942;2023-12-07T08:12:34;4.80;99.90
15554;DHT22;7878;44.632;10.942;2023-12-07T08:15:00;4.80;99.90
15554;DHT22;7878;44.632;10.942;2023-12-07T08:17:26;4.90;99.90
15554;DHT22;7878;44.632;10.942;2023-12-07T08:19:52;4.90;99.90
15554;DHT22;7878;44.632;10.942;2023-12-07T08:22:18;4.90;99.90
15554;DHT22;7878;44.632;10.942;2023-12-07T08:24:45;5.00;99.90
15554;DHT22;7878;44.632;10.942;2023-12-07T08:27:11;5.10;99.90
15554;DHT22;7878;44.632;10.942;2023-12-07T08:29:37;5.10;99.90
15554;DHT22;7878;44.632;10.942;2023-12-07T08:32:03;5.20;99.90
15554;DHT22;7878;44.632;10.942;2023-12-07T08:34:29;5.30;99.90
15554;DHT22;7878;44.632;10.942;2023-12-07T08:36:55;5.40;99.90
15554;DHT22;7878;44.632;10.942;2023-12-07T08:39:20;5.40;99.90
15554;DHT22;7878;44.632;10.942;2023-12-07T08:41:46;5.50;99.90
15554;DHT22;7878;44.632;10.942;2023-12-07T08:44:12;5.60;99.90
15554;DHT22;7878;44.632;10.942;2023-12-07T08:46:37;5.60;99.90
15554;DHT22;7878;44.632;10.942;2023-12-07T08:49:03;5.70;99.90
15554;DHT22;7878;44.632;10.942;2023-12-07T08:51:29;5.70;99.90
15554;DHT22;7878;44.632;10.942;2023-12-07T08:53:55;5.80;99.90
15554;DHT22;7878;44.632;10.942;2023-12-07T08:56:21;5.90;99.90
15554;DHT22;7878;44.632;10.942;2023-12-07T08:58:46;5.90;99.90
15554;DHT22;7878;44.632;10.942;2023-12-07T09:01:12;6.00;99.90
15554;DHT22;7878;44.632;10.942;2023-12-07T09:03:38;6.10;99.90
15554;DHT22;7878;44.632;10.942;2023-12-07T09:06:04;6.10;99.90
15554;DHT22;7878;44.632;10.942;2023-12-07T09:08:30;6.30;99.90
15554;DHT22;7878;44.632;10.942;2023-12-07T09:10:56;6.40;99.90
15554;DHT22;7878;44.632;10.942;2023-12-07T09:13:23;6.50;99.90
15554;DHT22;7878;44.632;10.942;2023-12-07T09:15:48;6.60;99.90
15554;DHT22;7878;44.632;10.942;2023-12-07T09:18:14;6.80;99.90
15554;DHT22;7878;44.632;10.942;2023-12-07T09:20:40;6.90;99.90
15554;DHT22;7878;44.632;10.942;2023-12-07T09:23:12;7.00;99.90
15554;DHT22;7878;44.632;10.942;2023-12-07T09:25:38;7.20;99.90
15554;DHT22;7878;44.632;10.942;2023-12-07T09:28:04;7.50;99.90
15554;DHT22;7878;44.632;10.942;2023-12-07T09:30:30;8.10;99.90
15554;DHT22;7878;44.632;10.942;2023-12-07T09:32:56;10.20;99.90
15554;DHT22;7878;44.632;10.942;2023-12-07T09:35:21;13.20;99.90
15554;DHT22;7878;44.632;10.942;2023-12-07T09:37:48;13.50;97.60
15554;DHT22;7878;44.632;10.942;2023-12-07T09:40:18;13.80;95.80
15554;DHT22;7878;44.632;10.942;2023-12-07T09:42:48;13.70;93.70
15554;DHT22;7878;44.632;10.942;2023-12-07T09:45:15;13.30;94.30
15554;DHT22;7878;44.632;10.942;2023-12-07T09:47:52;13.20;94.40
15554;DHT22;7878;44.632;10.942;2023-12-07T09:50:22;13.20;93.60
15554;DHT22;7878;44.632;10.942;2023-12-07T09:52:49;13.40;94.70
15554;DHT22;7878;44.632;10.942;2023-12-07T09:55:17;14.10;94.80
15554;DHT22;7878;44.632;10.942;2023-12-07T09:57:43;16.40;93.80
15554;DHT22;7878;44.632;10.942;2023-12-07T10:00:11;16.60;91.00
15554;DHT22;7878;44.632;10.942;2023-12-07T10:02:40;17.20;89.50
15554;DHT22;7878;44.632;10.942;2023-12-07T10:05:10;18.40;87.30
15554;DHT22;7878;44.632;10.942;2023-12-07T10:07:41;16.80;83.20
15554;DHT22;7878;44.632;10.942;2023-12-07T10:10:08;15.40;84.50
15554;DHT22;7878;44.632;10.942;2023-12-07T10:12:35;14.00;86.90
15554;DHT22;7878;44.632;10.942;2023-12-07T10:15:14;13.00;88.70
15554;DHT22;7878;44.632;10.942;2023-12-07T10:17:50;12.80;90.50
15554;DHT22;7878;44.632;10.942;2023-12-07T10:20:34;14.50;90.20
15554;DHT22;7878;44.632;10.942;2023-12-07T10:23:04;18.00;83.00
15554;DHT22;7878;44.632;10.942;2023-12-07T10:25:30;19.60;81.00
15554;DHT22;7878;44.632;10.942;2023-12-07T10:27:57;18.90;79.00
15554;DHT22;7878;44.632;10.942;2023-12-07T10:30:23;18.20;79.30
15554;DHT22;7878;44.632;10.942;2023-12-07T10:32:52;19.10;79.40
15554;DHT22;7878;44.632;10.942;2023-12-07T10:35:20;21.80;80.20
15554;DHT22;7878;44.632;10.942;2023-12-07T10:37:47;23.80;77.00
15554;DHT22;7878;44.632;10.942;2023-12-07T10:40:15;25.10;74.30
15554;DHT22;7878;44.632;10.942;2023-12-07T10:42:41;25.70;71.70
15554;DHT22;7878;44.632;10.942;2023-12-07T10:45:08;25.80;69.50
15554;DHT22;7878;44.632;10.942;2023-12-07T10:47:37;24.30;69.90
15554;DHT22;7878;44.632;10.942;2023-12-07T10:50:08;22.60;69.70
15554;DHT22;7878;44.632;10.942;2023-12-07T10:52:54;21.10;69.60
15554;DHT22;7878;44.632;10.942;2023-12-07T10:55:21;19.80;67.60
15554;DHT22;7878;44.632;10.942;2023-12-07T10:57:53;19.20;74.10
15554;DHT22;7878;44.632;10.942;2023-12-07T11:00:20;18.60;74.00
15554;DHT22;7878;44.632;10.942;2023-12-07T11:02:50;18.40;75.70
15554;DHT22;7878;44.632;10.942;2023-12-07T11:05:20;18.60;76.20
15554;DHT22;7878;44.632;10.942;2023-12-07T11:07:54;19.90;76.00
15554;DHT22;7878;44.632;10.942;2023-12-07T11:13:31;20.30;71.70
15554;DHT22;7878;44.632;10.942;2023-12-07T11:16:00;20.10;69.80
15554;DHT22;7878;44.632;10.942;2023-12-07T11:18:28;20.50;75.60
15554;DHT22;7878;44.632;10.942;2023-12-07T11:20:55;22.90;73.70
15554;DHT22;7878;44.632;10.942;2023-12-07T11:23:23;24.60;74.10
15554;DHT22;7878;44.632;10.942;2023-12-07T11:25:52;24.30;71.80
15554;DHT22;7878;44.632;10.942;2023-12-07T11:28:37;23.10;69.40
15554;DHT22;7878;44.632;10.942;2023-12-07T11:31:07;22.50;64.10
15554;DHT22;7878;44.632;10.942;2023-12-07T11:33:38;23.00;70.10
15554;DHT22;7878;44.632;10.942;2023-12-07T11:36:07;25.60;66.60
15554;DHT22;7878;44.632;10.942;2023-12-07T11:38:35;28.70;63.60
15554;DHT22;7878;44.632;10.942;2023-12-07T11:41:02;30.30;63.20
15554;DHT22;7878;44.632;10.942;2023-12-07T11:46:08;26.90;57.40
15554;DHT22;7878;44.632;10.942;2023-12-07T11:48:35;26.00;61.00
15554;DHT22;7878;44.632;10.942;2023-12-07T11:51:02;25.30;63.70
15554;DHT22;7878;44.632;10.942;2023-12-07T11:53:31;22.60;65.20
15554;DHT22;7878;44.632;10.942;2023-12-07T11:55:59;20.50;63.30
15554;DHT22;7878;44.632;10.942;2023-12-07T11:58:29;19.00;66.60
15554;DHT22;7878;44.632;10.942;2023-12-07T12:01:07;17.90;66.80
15554;DHT22;7878;44.632;10.942;2023-12-07T12:03:34;17.00;67.10
15554;DHT22;7878;44.632;10.942;2023-12-07T12:06:04;16.40;71.90
15554;DHT22;7878;44.632;10.942;2023-12-07T12:08:31;15.80;70.70
15554;DHT22;7878;44.632;10.942;2023-12-07T12:11:01;15.60;74.10
15554;DHT22;7878;44.632;10.942;2023-12-07T12:13:34;15.20;74.20
15554;DHT22;7878;44.632;10.942;2023-12-07T12:16:03;15.10;72.50
15554;DHT22;7878;44.632;10.942;2023-12-07T12:18:29;14.90;72.50
15554;DHT22;7878;44.632;10.942;2023-12-07T12:20:56;15.00;73.40
15554;DHT22;7878;44.632;10.942;2023-12-07T12:23:25;15.30;72.90
15554;DHT22;7878;44.632;10.942;2023-12-07T12:25:56;15.60;74.10
15554;DHT22;7878;44.632;10.942;2023-12-07T12:28:27;15.60;72.60
15554;DHT22;7878;44.632;10.942;2023-12-07T12:30:55;15.50;72.20
15554;DHT22;7878;44.632;10.942;2023-12-07T12:33:20;15.30;73.40
15554;DHT22;7878;44.632;10.942;2023-12-07T12:36:04;14.90;73.30
15554;DHT22;7878;44.632;10.942;2023-12-07T12:38:32;14.60;72.10
15554;DHT22;7878;44.632;10.942;2023-12-07T12:40:58;14.40;74.90
15554;DHT22;7878;44.632;10.942;2023-12-07T12:43:24;14.30;75.80
15554;DHT22;7878;44.632;10.942;2023-12-07T12:45:51;14.20;75.00
15554;DHT22;7878;44.632;10.942;2023-12-07T12:48:17;14.10;75.40
15554;DHT22;7878;44.632;10.942;2023-12-07T12:50:44;14.10;76.10
15554;DHT22;7878;44.632;10.942;2023-12-07T12:53:11;14.10;77.10
15554;DHT22;7878;44.632;10.942;2023-12-07T12:55:41;14.20;76.30
15554;DHT22;7878;44.632;10.942;2023-12-07T12:58:08;14.30;76.40
15554;DHT22;7878;44.632;10.942;2023-12-07T13:00:40;14.40;76.40
15554;DHT22;7878;44.632;10.942;2023-12-07T13:03:07;14.40;75.10
15554;DHT22;7878;44.632;10.942;2023-12-07T13:05:33;14.20;76.50
15554;DHT22;7878;44.632;10.942;2023-12-07T13:08:01;14.20;76.50
15554;DHT22;7878;44.632;10.942;2023-12-07T13:10:27;14.20;77.40
15554;DHT22;7878;44.632;10.942;2023-12-07T13:12:54;14.10;77.20
15554;DHT22;7878;44.632;10.942;2023-12-07T13:15:23;14.40;77.60
15554;DHT22;7878;44.632;10.942;2023-12-07T13:17:51;14.80;75.90
15554;DHT22;7878;44.632;10.942;2023-12-07T13:20:17;15.30;74.30
15554;DHT22;7878;44.632;10.942;2023-12-07T13:22:44;15.70;74.00
15554;DHT22;7878;44.632;10.942;2023-12-07T13:25:11;15.70;73.20
15554;DHT22;7878;44.632;10.942;2023-12-07T13:27:40;15.50;73.50
15554;DHT22;7878;44.632;10.942;2023-12-07T13:30:09;15.10;73.40
15554;DHT22;7878;44.632;10.942;2023-12-07T13:32:36;14.70;74.00
15554;DHT22;7878;44.632;10.942;2023-12-07T13:35:04;14.40;75.50
15554;DHT22;7878;44.632;10.942;2023-12-07T13:37:30;14.20;76.10
15554;DHT22;7878;44.632;10.942;2023-12-07T13:39:58;13.90;76.90
15554;DHT22;7878;44.632;10.942;2023-12-07T13:42:25;13.80;77.00
15554;DHT22;7878;44.632;10.942;2023-12-07T13:44:59;13.70;77.80
15554;DHT22;7878;44.632;10.942;2023-12-07T13:47:26;13.50;78.30
15554;DHT22;7878;44.632;10.942;2023-12-07T13:49:58;13.30;78.90
15554;DHT22;7878;44.632;10.942;2023-12-07T13:52:25;13.10;79.30
15554;DHT22;7878;44.632;10.942;2023-12-07T13:54:51;13.00;79.70
15554;DHT22;7878;44.632;10.942;2023-12-07T13:57:20;12.80;80.40
15554;DHT22;7878;44.632;10.942;2023-12-07T13:59:51;12.70;80.00
15554;DHT22;7878;44.632;10.942;2023-12-07T14:02:18;12.50;80.40
15554;DHT22;7878;44.632;10.942;2023-12-07T14:04:44;12.40;81.70
15554;DHT22;7878;44.632;10.942;2023-12-07T14:07:11;12.30;81.40
15554;DHT22;7878;44.632;10.942;2023-12-07T14:09:44;12.30;82.40
15554;DHT22;7878;44.632;10.942;2023-12-07T14:12:11;12.20;82.40
15554;DHT22;7878;44.632;10.942;2023-12-07T14:14:42;12.10;83.00
15554;DHT22;7878;44.632;10.942;2023-12-07T14:17:16;12.00;83.50
15554;DHT22;7878;44.632;10.942;2023-12-07T14:19:45;11.90;83.90
15554;DHT22;7878;44.632;10.942;2023-12-07T14:22:14;11.90;84.60
15554;DHT22;7878;44.632;10.942;2023-12-07T14:24:40;11.90;85.30
15554;DHT22;7878;44.632;10.942;2023-12-07T14:27:07;11.80;85.70
15554;DHT22;7878;44.632;10.942;2023-12-07T14:29:34;11.80;86.20
15554;DHT22;7878;44.632;10.942;2023-12-07T14:32:00;11.80;86.60
15554;DHT22;7878;44.632;10.942;2023-12-07T14:34:27;11.70;85.90
15554;DHT22;7878;44.632;10.942;2023-12-07T14:36:53;11.60;86.10
15554;DHT22;7878;44.632;10.942;2023-12-07T14:39:20;11.60;86.60
15554;DHT22;7878;44.632;10.942;2023-12-07T14:41:49;11.50;87.30
15554;DHT22;7878;44.632;10.942;2023-12-07T14:44:17;11.50;87.40
15554;DHT22;7878;44.632;10.942;2023-12-07T14:46:46;11.50;88.50
15554;DHT22;7878;44.632;10.942;2023-12-07T14:49:13;11.40;88.50
15554;DHT22;7878;44.632;10.942;2023-12-07T14:51:41;11.30;88.70
15554;DHT22;7878;44.632;10.942;2023-12-07T14:54:08;11.30;89.30
15554;DHT22;7878;44.632;10.942;2023-12-07T14:56:36;11.20;89.00
15554;DHT22;7878;44.632;10.942;2023-12-07T14:59:03;11.20;88.20
15554;DHT22;7878;44.632;10.942;2023-12-07T15:01:29;11.10;88.50
15554;DHT22;7878;44.632;10.942;2023-12-07T15:03:57;11.10;88.50
15554;DHT22;7878;44.632;10.942;2023-12-07T15:06:23;11.00;88.50
15554;DHT22;7878;44.632;10.942;2023-12-07T15:08:50;11.00;88.40
15554;DHT22;7878;44.632;10.942;2023-12-07T15:11:19;10.90;89.00
15554;DHT22;7878;44.632;10.942;2023-12-07T15:13:46;10.80;89.20
15554;DHT22;7878;44.632;10.942;2023-12-07T15:16:12;10.80;90.10
15554;DHT22;7878;44.632;10.942;2023-12-07T15:18:39;10.70;90.40
15554;DHT22;7878;44.632;10.942;2023-12-07T15:21:12;10.70;90.80
15554;DHT22;7878;44.632;10.942;2023-12-07T15:23:43;10.60;91.30
15554;DHT22;7878;44.632;10.942;2023-12-07T15:26:10;10.60;91.50
15554;DHT22;7878;44.632;10.942;2023-12-07T15:28:38;10.50;91.70
15554;DHT22;7878;44.632;10.942;2023-12-07T15:31:06;10.40;92.00
15554;DHT22;7878;44.632;10.942;2023-12-07T15:33:32;10.40;92.40
15554;DHT22;7878;44.632;10.942;2023-12-07T15:35:59;10.30;92.70
15554;DHT22;7878;44.632;10.942;2023-12-07T15:38:26;10.30;92.90
15554;DHT22;7878;44.632;10.942;2023-12-07T15:40:52;10.20;93.10
15554;DHT22;7878;44.632;10.942;2023-12-07T15:43:22;10.20;93.30
15554;DHT22;7878;44.632;10.942;2023-12-07T15:45:48;10.10;93.50